Time;durP1;ratioP1;P1;durP2;ratioP2;P2;SDS_P1;SDS_P2;PMS_P1;PMS_P2;Temp;Humidity;BMP_temperature;BMP_pressure;BME280_temperature;BME280_humidity;BME280_pressure;Samples;Min_cycle;Max_cycle;Signal;HPM_P1;HPM_P2
2021/08/14 00:00:47;;;;;;;8.10;4.65;;;22.00;69.80;;;;;;5055096;28;20033;-60
2021/08/14 00:03:12;;;;;;;7.70;4.95;;;22.00;69.80;;;;;;5035045;28;20064;-60
2021/08/14 00:05:38;;;;;;;7.72;5.45;;;22.00;69.70;;;;;;5035182;28;20533;-60
2021/08/14 00:08:04;;;;;;;7.55;4.88;;;22.00;69.80;;;;;;5033792;28;20096;-60
2021/08/14 00:10:30;;;;;;;7.63;5.25;;;21.90;69.80;;;;;;5034824;28;20065;-60
2021/08/14 00:12:55;;;;;;;7.63;5.22;;;21.90;69.80;;;;;;5034847;28;20026;-60
2021/08/14 00:15:21;;;;;;;7.45;5.65;;;21.80;69.70;;;;;;5034640;28;20101;-60
2021/08/14 00:17:47;;;;;;;7.68;5.57;;;21.80;69.70;;;;;;5034512;28;20033;-59
2021/08/14 00:20:13;;;;;;;6.75;5.43;;;21.80;69.70;;;;;;5032598;28;20469;-59
2021/08/14 00:22:38;;;;;;;8.05;5.22;;;21.80;69.70;;;;;;5033918;28;20516;-60
2021/08/14 00:25:05;;;;;;;7.05;5.47;;;21.80;69.70;;;;;;5034474;28;20474;-60
2021/08/14 00:27:30;;;;;;;7.43;5.85;;;21.70;69.50;;;;;;5034481;28;20026;-60
2021/08/14 00:29:56;;;;;;;8.65;5.43;;;21.70;69.60;;;;;;5051322;28;20094;-60
2021/08/14 00:32:21;;;;;;;9.27;6.25;;;21.70;69.70;;;;;;5054329;28;20040;-60
2021/08/14 00:34:47;;;;;;;8.52;5.53;;;21.70;69.80;;;;;;5047203;28;20028;-60
2021/08/14 00:37:13;;;;;;;7.85;6.30;;;21.70;69.90;;;;;;5034142;28;20021;-60
2021/08/14 00:39:38;;;;;;;11.73;6.07;;;21.70;70.00;;;;;;5033470;28;20033;-59
2021/08/14 00:42:04;;;;;;;7.80;5.50;;;21.60;69.90;;;;;;5034124;28;20033;-60
2021/08/14 00:44:32;;;;;;;7.72;5.60;;;21.60;69.90;;;;;;5034039;28;20024;-60
2021/08/14 00:46:58;;;;;;;8.80;6.13;;;21.60;69.90;;;;;;5034258;28;20079;-59
2021/08/14 00:49:24;;;;;;;8.18;6.00;;;21.50;69.60;;;;;;5034092;28;20468;-60
2021/08/14 00:51:50;;;;;;;8.30;5.60;;;21.50;69.80;;;;;;5026977;28;20079;-60
2021/08/14 00:54:15;;;;;;;8.95;6.00;;;21.50;69.90;;;;;;5023457;28;20036;-60
2021/08/14 00:56:41;;;;;;;7.63;6.18;;;21.40;70.00;;;;;;5033820;28;20040;-60
2021/08/14 00:59:07;;;;;;;9.20;6.75;;;21.40;70.10;;;;;;5043593;28;20021;-59
2021/08/14 01:01:34;;;;;;;9.43;6.70;;;21.40;70.20;;;;;;5053359;28;20035;-60
2021/08/14 01:04:01;;;;;;;8.98;7.05;;;21.40;70.60;;;;;;5053692;28;20093;-60
2021/08/14 01:06:27;;;;;;;9.40;6.57;;;21.30;70.70;;;;;;5053385;28;20400;-60
2021/08/14 01:08:54;;;;;;;9.70;7.30;;;21.30;70.80;;;;;;5038918;28;20029;-60
2021/08/14 01:11:20;;;;;;;9.13;6.60;;;21.30;70.90;;;;;;5033661;28;20063;-60
2021/08/14 01:13:46;;;;;;;9.30;6.50;;;21.30;71.10;;;;;;5033801;28;20397;-60
2021/08/14 01:16:12;;;;;;;9.63;7.45;;;21.30;71.10;;;;;;5033449;28;20033;-60
2021/08/14 01:18:42;;;;;;;9.90;6.60;;;21.30;71.20;;;;;;5033441;28;20032;-60
2021/08/14 01:21:21;;;;;;;10.15;7.35;;;21.30;71.50;;;;;;5032640;28;20029;-60
2021/08/14 01:23:53;;;;;;;9.30;6.75;;;21.20;71.50;;;;;;5032992;28;20041;-60
2021/08/14 01:26:19;;;;;;;8.77;6.35;;;21.20;71.70;;;;;;5032585;28;20033;-60
2021/08/14 01:28:46;;;;;;;9.50;6.97;;;21.20;72.40;;;;;;5042560;28;20017;-60
2021/08/14 01:31:13;;;;;;;7.22;6.45;;;21.20;71.60;;;;;;5052918;28;20493;-60
2021/08/14 01:33:42;;;;;;;9.25;7.18;;;21.20;71.70;;;;;;5053123;28;20488;-60
2021/08/14 01:36:13;;;;;;;8.80;6.63;;;21.20;72.00;;;;;;5052964;28;20079;-60
2021/08/14 01:38:44;;;;;;;10.48;7.13;;;21.10;72.00;;;;;;5053008;28;20052;-60
2021/08/14 01:41:10;;;;;;;11.05;7.25;;;21.10;72.10;;;;;;5041240;28;20056;-60
2021/08/14 01:43:51;;;;;;;11.48;7.57;;;21.10;72.30;;;;;;5033185;28;20025;-60
2021/08/14 01:46:17;;;;;;;8.45;6.40;;;21.10;72.20;;;;;;5032878;28;20021;-60
2021/08/14 01:48:43;;;;;;;8.88;6.93;;;21.10;72.50;;;;;;5032895;28;20079;-60
2021/08/14 01:51:08;;;;;;;10.10;7.10;;;21.00;72.60;;;;;;5032940;28;20025;-60
2021/08/14 01:53:34;;;;;;;10.35;6.80;;;21.00;72.60;;;;;;5032886;28;20488;-60
2021/08/14 01:55:59;;;;;;;10.80;7.57;;;21.10;72.60;;;;;;5032645;28;20030;-60
2021/08/14 01:58:25;;;;;;;10.82;7.18;;;21.00;72.90;;;;;;5035055;28;20036;-60
2021/08/14 02:00:51;;;;;;;11.48;7.55;;;21.00;72.90;;;;;;5032556;28;20033;-60
2021/08/14 02:03:16;;;;;;;8.82;6.90;;;21.00;73.20;;;;;;5032772;28;20021;-60
2021/08/14 02:05:43;;;;;;;10.57;7.80;;;21.00;73.80;;;;;;5032708;28;20116;-60
2021/08/14 02:08:09;;;;;;;9.75;7.28;;;21.00;73.30;;;;;;5062553;28;20029;-60
2021/08/14 02:10:34;;;;;;;10.60;7.03;;;21.00;73.40;;;;;;5052421;28;20032;-60
2021/08/14 02:13:00;;;;;;;9.52;7.40;;;21.00;73.50;;;;;;5043652;28;20025;-60
2021/08/14 02:15:26;;;;;;;11.60;7.65;;;20.90;73.50;;;;;;5012932;28;20429;-60
2021/08/14 02:17:51;;;;;;;12.30;7.70;;;20.90;73.40;;;;;;5012725;28;20026;-61
2021/08/14 02:20:17;;;;;;;11.93;7.70;;;20.90;73.50;;;;;;5013693;28;20389;-60
2021/08/14 02:22:42;;;;;;;9.30;6.60;;;20.90;73.70;;;;;;5032558;28;20466;-60
2021/08/14 02:25:09;;;;;;;10.57;7.35;;;20.90;73.70;;;;;;5032481;28;20091;-60
2021/08/14 02:27:34;;;;;;;10.25;7.35;;;20.80;73.80;;;;;;5032449;28;20026;-60
2021/08/14 02:30:00;;;;;;;9.48;7.38;;;20.80;73.80;;;;;;5031095;28;20060;-61
2021/08/14 02:32:26;;;;;;;9.50;7.15;;;20.80;74.00;;;;;;5033751;28;20156;-60
2021/08/14 02:34:52;;;;;;;8.88;6.93;;;20.80;74.20;;;;;;5036805;28;20431;-60
2021/08/14 02:37:18;;;;;;;9.55;7.20;;;20.70;74.20;;;;;;5036517;28;20033;-60
2021/08/14 02:39:43;;;;;;;9.25;7.93;;;20.70;73.90;;;;;;5036617;28;20029;-60
2021/08/14 02:42:09;;;;;;;9.13;7.38;;;20.70;74.20;;;;;;5036382;28;20033;-60
2021/08/14 02:44:35;;;;;;;12.35;7.90;;;20.70;74.40;;;;;;5035769;28;20021;-60
2021/08/14 02:47:00;;;;;;;11.32;7.53;;;20.70;74.40;;;;;;5035679;28;20025;-61
2021/08/14 02:49:26;;;;;;;9.23;7.50;;;20.70;74.60;;;;;;5036187;28;20021;-61
2021/08/14 02:51:52;;;;;;;11.48;7.95;;;20.70;74.70;;;;;;5036341;28;20021;-61
2021/08/14 02:54:17;;;;;;;11.18;7.90;;;20.60;74.70;;;;;;5036175;28;20026;-61
2021/08/14 02:56:43;;;;;;;12.88;7.65;;;20.60;74.80;;;;;;5036116;28;20029;-61
2021/08/14 02:59:08;;;;;;;11.25;8.02;;;20.70;74.80;;;;;;5048167;28;20025;-61
2021/08/14 03:01:34;;;;;;;9.65;7.65;;;20.70;74.80;;;;;;5037619;28;20029;-61
2021/08/14 03:04:00;;;;;;;10.70;7.75;;;20.70;74.80;;;;;;5019103;28;20033;-61
2021/08/14 03:06:27;;;;;;;11.88;8.38;;;20.70;75.10;;;;;;5017295;28;20026;-61
2021/08/14 03:08:53;;;;;;;10.85;8.50;;;20.70;75.30;;;;;;5055835;28;20035;-60
2021/08/14 03:11:19;;;;;;;10.65;8.18;;;20.70;75.30;;;;;;5056028;28;20100;-60
2021/08/14 03:13:44;;;;;;;10.90;8.55;;;20.70;75.30;;;;;;5055774;28;20106;-61
2021/08/14 03:16:10;;;;;;;10.82;8.88;;;20.70;75.30;;;;;;5047230;28;20032;-60
2021/08/14 03:18:36;;;;;;;10.07;8.10;;;20.80;75.50;;;;;;5030252;28;20033;-60
2021/08/14 03:21:01;;;;;;;10.57;8.55;;;20.80;75.50;;;;;;5022957;28;20056;-60
2021/08/14 03:23:27;;;;;;;11.80;8.77;;;20.80;75.80;;;;;;5035687;28;20032;-60
2021/08/14 03:25:52;;;;;;;10.98;8.40;;;20.90;75.80;;;;;;5035815;28;20021;-60
2021/08/14 03:28:18;;;;;;;10.52;8.18;;;20.90;75.90;;;;;;5035539;28;20038;-60
2021/08/14 03:30:44;;;;;;;10.48;7.47;;;21.00;76.00;;;;;;5035246;28;20212;-60
2021/08/14 03:33:10;;;;;;;12.25;7.88;;;21.10;75.90;;;;;;5034323;28;20568;-60
2021/08/14 03:35:35;;;;;;;9.88;7.90;;;21.20;76.10;;;;;;5033303;28;20027;-60
2021/08/14 03:38:01;;;;;;;9.00;7.47;;;21.20;76.00;;;;;;5033375;28;20025;-61
2021/08/14 03:40:26;;;;;;;8.30;7.22;;;21.30;75.80;;;;;;5033398;28;20032;-61
2021/08/14 03:42:53;;;;;;;10.68;7.78;;;21.40;75.70;;;;;;5032073;28;20109;-61
2021/08/14 03:45:19;;;;;;;11.60;8.52;;;21.50;75.70;;;;;;5033320;28;20021;-61
2021/08/14 03:47:44;;;;;;;11.13;8.32;;;21.60;75.60;;;;;;5033236;28;20083;-61
2021/08/14 03:50:11;;;;;;;9.20;7.47;;;21.70;75.40;;;;;;5033254;28;20060;-61
2021/08/14 03:52:36;;;;;;;11.43;8.45;;;21.80;75.20;;;;;;5034765;28;20022;-61
2021/08/14 03:55:03;;;;;;;10.70;8.05;;;21.90;75.10;;;;;;5034665;28;20017;-61
2021/08/14 03:57:29;;;;;;;10.00;7.47;;;21.90;74.80;;;;;;5035737;28;20033;-60
2021/08/14 03:59:55;;;;;;;10.07;7.30;;;22.00;74.60;;;;;;5054190;28;20025;-61
2021/08/14 04:02:21;;;;;;;10.07;7.45;;;22.10;74.80;;;;;;5054966;28;20515;-61
2021/08/14 04:04:47;;;;;;;9.90;7.47;;;22.30;75.20;;;;;;5054809;28;20025;-61
2021/08/14 04:07:12;;;;;;;6.90;6.20;;;22.50;75.60;;;;;;5054733;28;20033;-61
2021/08/14 04:09:38;;;;;;;8.05;6.80;;;22.70;75.40;;;;;;5041706;28;20032;-61
2021/08/14 04:12:05;;;;;;;8.27;6.82;;;23.10;74.80;;;;;;5034979;28;20026;-61
2021/08/14 04:14:31;;;;;;;8.50;5.88;;;23.50;73.40;;;;;;5034975;28;20033;-61
2021/08/14 04:16:56;;;;;;;7.78;5.35;;;23.70;71.40;;;;;;5034578;28;20380;-61
2021/08/14 04:19:22;;;;;;;6.65;5.18;;;23.90;69.90;;;;;;5034532;28;20381;-61
2021/08/14 04:21:48;;;;;;;8.38;5.35;;;24.00;68.70;;;;;;5034385;28;20022;-61
2021/08/14 04:24:14;;;;;;;6.97;5.20;;;24.10;67.60;;;;;;5034329;28;20025;-61
2021/08/14 04:26:39;;;;;;;6.63;5.25;;;24.20;66.90;;;;;;5034098;28;20524;-61
2021/08/14 04:29:05;;;;;;;6.53;5.35;;;24.20;66.20;;;;;;5048543;28;20049;-61
2021/08/14 04:31:31;;;;;;;6.57;5.13;;;24.20;66.00;;;;;;5054279;28;20045;-61
2021/08/14 04:33:57;;;;;;;7.13;4.80;;;24.20;65.60;;;;;;5054019;28;20032;-61
2021/08/14 04:36:22;;;;;;;5.82;4.95;;;24.20;65.50;;;;;;5036270;28;20082;-61
2021/08/14 04:38:49;;;;;;;8.00;5.07;;;24.20;65.10;;;;;;5053966;28;20029;-61
2021/08/14 04:41:15;;;;;;;7.50;4.85;;;24.10;65.10;;;;;;5049499;28;20076;-61
2021/08/14 04:43:40;;;;;;;6.38;5.15;;;24.10;65.30;;;;;;5034074;28;20025;-60
2021/08/14 04:46:06;;;;;;;5.53;4.43;;;24.20;65.30;;;;;;5034005;28;20021;-61
2021/08/14 04:48:32;;;;;;;5.13;4.38;;;24.30;65.20;;;;;;5033892;28;20036;-60
2021/08/14 04:50:57;;;;;;;5.57;4.45;;;24.50;64.60;;;;;;5033958;28;20373;-61
2021/08/14 04:53:23;;;;;;;6.97;5.13;;;24.60;64.10;;;;;;5033806;28;20022;-61
2021/08/14 04:55:49;;;;;;;5.75;4.72;;;24.70;64.10;;;;;;5033346;28;20029;-61
2021/08/14 04:58:14;;;;;;;6.00;5.10;;;24.70;63.90;;;;;;5041794;28;20028;-61
2021/08/14 05:00:40;;;;;;;5.35;4.47;;;24.80;63.80;;;;;;5053277;28;20116;-61
2021/08/14 05:03:06;;;;;;;7.72;4.90;;;24.80;63.60;;;;;;5052769;28;20112;-61
2021/08/14 05:05:31;;;;;;;5.97;4.82;;;25.00;63.00;;;;;;5052582;28;20029;-61
2021/08/14 05:07:57;;;;;;;6.13;4.40;;;25.10;62.90;;;;;;5053268;28;20075;-61
2021/08/14 05:10:22;;;;;;;6.80;5.18;;;25.20;62.90;;;;;;5053531;28;20025;-61
2021/08/14 05:12:48;;;;;;;6.38;5.25;;;25.30;62.70;;;;;;5050803;28;20021;-61
2021/08/14 05:15:14;;;;;;;5.38;4.55;;;25.30;62.30;;;;;;5033467;28;20026;-61
2021/08/14 05:17:39;;;;;;;8.65;5.00;;;25.40;62.10;;;;;;5033863;28;20029;-61
2021/08/14 05:20:06;;;;;;;7.85;5.32;;;25.40;61.90;;;;;;5033685;28;20106;-61
2021/08/14 05:22:31;;;;;;;5.85;5.25;;;25.30;61.80;;;;;;5033328;28;20060;-61
2021/08/14 05:24:57;;;;;;;7.13;5.30;;;25.30;61.90;;;;;;5033927;28;20053;-61
2021/08/14 05:27:23;;;;;;;6.72;4.68;;;25.20;62.00;;;;;;5033306;28;20107;-61
2021/08/14 05:29:49;;;;;;;6.45;4.68;;;25.10;62.50;;;;;;5033036;28;20026;-61
2021/08/14 05:32:14;;;;;;;7.10;5.30;;;25.30;62.50;;;;;;5052843;28;20534;-61
2021/08/14 05:34:40;;;;;;;7.15;5.28;;;25.70;62.10;;;;;;5053854;28;20461;-60
2021/08/14 05:37:07;;;;;;;4.80;4.18;;;26.30;61.40;;;;;;5053735;28;20448;-60
2021/08/14 05:39:33;;;;;;;6.18;4.55;;;26.80;60.10;;;;;;5053381;28;20021;-60
2021/08/14 05:41:58;;;;;;;5.72;4.32;;;27.10;59.10;;;;;;5031801;28;20039;-60
2021/08/14 05:44:24;;;;;;;6.93;4.40;;;27.10;58.70;;;;;;5032247;28;20117;-60
2021/08/14 05:46:49;;;;;;;5.75;4.40;;;27.10;58.70;;;;;;5032286;28;20029;-60
2021/08/14 05:49:15;;;;;;;6.20;4.80;;;26.90;58.70;;;;;;5032144;28;20025;-60
2021/08/14 05:51:41;;;;;;;5.75;4.32;;;26.80;58.90;;;;;;5032517;28;20068;-60
2021/08/14 05:54:07;;;;;;;6.50;3.70;;;26.60;58.80;;;;;;5033278;28;20039;-60
2021/08/14 05:56:33;;;;;;;7.00;4.30;;;26.50;59.30;;;;;;5033275;28;20480;-60
2021/08/14 05:58:59;;;;;;;5.10;4.07;;;26.40;59.50;;;;;;5047676;28;20358;-59
2021/08/14 06:01:24;;;;;;;5.22;4.07;;;26.30;59.30;;;;;;5038122;28;20076;-60
2021/08/14 06:03:50;;;;;;;5.95;4.20;;;26.20;59.50;;;;;;5033371;28;20052;-59
2021/08/14 06:06:16;;;;;;;5.63;3.97;;;26.10;59.60;;;;;;5032914;28;20076;-59
2021/08/14 06:08:42;;;;;;;6.50;4.25;;;26.10;59.70;;;;;;5052088;28;20047;-59
2021/08/14 06:11:07;;;;;;;6.35;4.18;;;26.00;59.80;;;;;;5052642;28;20059;-59
2021/08/14 06:13:33;;;;;;;4.65;3.72;;;26.00;59.50;;;;;;5052433;28;20029;-59
2021/08/14 06:15:59;;;;;;;5.35;3.95;;;25.90;59.50;;;;;;5050622;28;20026;-60
2021/08/14 06:18:24;;;;;;;6.13;4.30;;;25.90;59.60;;;;;;5033071;28;20049;-60
2021/08/14 06:20:50;;;;;;;5.00;4.03;;;25.90;59.90;;;;;;5033000;28;20017;-59
2021/08/14 06:23:16;;;;;;;4.72;4.00;;;25.90;59.80;;;;;;5032958;28;20021;-60
2021/08/14 06:25:42;;;;;;;5.25;3.92;;;25.90;59.90;;;;;;5033139;28;20029;-59
2021/08/14 06:28:07;;;;;;;6.78;4.30;;;26.00;60.20;;;;;;5033232;28;20025;-59
2021/08/14 06:30:33;;;;;;;4.85;4.13;;;25.90;60.00;;;;;;5033053;28;20161;-59
2021/08/14 06:32:59;;;;;;;5.80;4.10;;;25.90;59.80;;;;;;5032456;28;20044;-60
2021/08/14 06:35:24;;;;;;;4.97;4.07;;;25.90;59.90;;;;;;5033403;28;20075;-59
2021/08/14 06:37:50;;;;;;;4.72;3.80;;;25.90;59.60;;;;;;5033033;28;20521;-60
2021/08/14 06:40:16;;;;;;;3.75;3.40;;;25.80;59.80;;;;;;5032795;28;20033;-59
2021/08/14 06:42:41;;;;;;;5.28;3.88;;;25.80;59.90;;;;;;5033290;28;20036;-59
2021/08/14 06:45:08;;;;;;;5.72;3.92;;;25.80;59.70;;;;;;5033030;28;20108;-59
2021/08/14 06:47:33;;;;;;;6.35;3.75;;;25.80;59.60;;;;;;5039776;28;20120;-59
2021/08/14 06:49:59;;;;;;;4.63;3.50;;;25.80;59.70;;;;;;5045934;28;20092;-59
2021/08/14 06:52:25;;;;;;;5.30;4.40;;;25.80;59.70;;;;;;5032638;28;20104;-59
2021/08/14 06:54:51;;;;;;;5.00;3.72;;;25.80;59.30;;;;;;5032858;28;20026;-59
2021/08/14 06:57:16;;;;;;;4.47;4.00;;;25.80;59.10;;;;;;5051094;28;20021;-59
2021/08/14 06:59:42;;;;;;;4.53;3.80;;;25.80;59.00;;;;;;5052624;28;20032;-59
2021/08/14 07:02:08;;;;;;;4.50;3.80;;;25.80;58.90;;;;;;5052495;28;20030;-59
2021/08/14 07:04:36;;;;;;;5.10;3.95;;;25.80;58.90;;;;;;5052719;28;20103;-59
2021/08/14 07:07:02;;;;;;;5.07;4.10;;;25.80;58.90;;;;;;5051899;28;20623;-59
2021/08/14 07:09:27;;;;;;;6.50;3.60;;;25.80;58.60;;;;;;5033653;28;20028;-59
2021/08/14 07:11:53;;;;;;;4.95;3.85;;;25.80;58.50;;;;;;5032658;28;20033;-59
2021/08/14 07:14:19;;;;;;;4.07;3.53;;;25.80;58.60;;;;;;5032417;28;20462;-60
2021/08/14 07:16:44;;;;;;;5.70;3.83;;;25.80;58.70;;;;;;5032576;28;20511;-59
2021/08/14 07:19:10;;;;;;;4.50;3.40;;;25.80;58.50;;;;;;5034736;28;20395;-60
2021/08/14 07:21:35;;;;;;;5.80;3.88;;;25.80;58.60;;;;;;5036234;28;20022;-60
2021/08/14 07:24:01;;;;;;;4.85;4.30;;;25.80;58.90;;;;;;5036046;28;20021;-59
2021/08/14 07:26:27;;;;;;;5.55;4.13;;;25.80;58.70;;;;;;5035957;28;20366;-59
2021/08/14 07:28:53;;;;;;;7.00;4.18;;;25.80;58.60;;;;;;5036012;28;20037;-59
2021/08/14 07:31:18;;;;;;;6.22;4.00;;;25.80;58.50;;;;;;5035889;28;20045;-59
2021/08/14 07:33:44;;;;;;;4.88;4.00;;;25.80;58.40;;;;;;5050194;28;20056;-59
2021/08/14 07:36:11;;;;;;;5.22;4.10;;;25.80;58.30;;;;;;5055708;28;20029;-59
2021/08/14 07:38:36;;;;;;;5.60;3.78;;;25.80;58.50;;;;;;5055778;28;20025;-58
2021/08/14 07:41:02;;;;;;;5.35;4.60;;;25.80;58.30;;;;;;5048920;28;20029;-59
2021/08/14 07:43:28;;;;;;;4.43;3.92;;;25.80;58.60;;;;;;5035515;28;20100;-59
2021/08/14 07:45:53;;;;;;;4.55;4.03;;;25.70;58.30;;;;;;5035217;28;20029;-59
2021/08/14 07:48:19;;;;;;;4.68;4.13;;;25.80;58.70;;;;;;5034988;28;20381;-59
2021/08/14 07:50:45;;;;;;;5.28;4.30;;;25.70;58.90;;;;;;5034970;28;20021;-59
2021/08/14 07:53:10;;;;;;;5.35;4.13;;;25.70;59.00;;;;;;5035069;28;20610;-59
2021/08/14 07:55:36;;;;;;;5.20;4.28;;;25.70;58.90;;;;;;5035063;28;20048;-59
2021/08/14 07:58:11;;;;;;;4.55;4.10;;;25.70;58.90;;;;;;5034418;28;20037;-59
2021/08/14 08:00:36;;;;;;;7.32;4.07;;;25.70;59.20;;;;;;5035001;28;20021;-59
2021/08/14 08:03:02;;;;;;;5.82;3.92;;;25.60;59.10;;;;;;5035031;28;20037;-59
2021/08/14 08:05:29;;;;;;;4.20;3.80;;;25.60;59.30;;;;;;5034810;28;20408;-59
2021/08/14 08:07:55;;;;;;;6.00;4.18;;;25.60;59.40;;;;;;5047532;28;20464;-59
2021/08/14 08:10:21;;;;;;;4.22;3.83;;;25.60;59.30;;;;;;5053952;28;20075;-59
2021/08/14 08:12:48;;;;;;;5.10;3.85;;;25.60;59.30;;;;;;5054727;28;20021;-59
2021/08/14 08:15:15;;;;;;;5.07;3.88;;;25.60;59.50;;;;;;5038968;28;20475;-59
2021/08/14 08:17:42;;;;;;;4.88;4.32;;;25.60;59.50;;;;;;5034657;28;20025;-59
2021/08/14 08:20:10;;;;;;;5.80;3.95;;;25.60;59.50;;;;;;5034606;28;20021;-59
2021/08/14 08:22:36;;;;;;;6.07;4.65;;;25.60;59.70;;;;;;5034661;28;20053;-59
2021/08/14 08:25:02;;;;;;;5.82;4.15;;;25.60;59.70;;;;;;5034536;28;20095;-59
2021/08/14 08:27:28;;;;;;;4.70;4.15;;;25.60;59.60;;;;;;5034766;28;20111;-59
2021/08/14 08:29:53;;;;;;;4.65;4.13;;;25.60;59.60;;;;;;5033719;28;20048;-59
2021/08/14 08:32:19;;;;;;;4.13;3.72;;;25.60;59.70;;;;;;5034431;28;20439;-59
2021/08/14 08:34:44;;;;;;;5.40;4.15;;;25.50;59.70;;;;;;5034334;28;20097;-59
2021/08/14 08:37:10;;;;;;;6.03;3.95;;;25.50;59.70;;;;;;5034369;28;20026;-59
2021/08/14 08:39:37;;;;;;;4.95;4.45;;;25.50;59.60;;;;;;5034275;28;20021;-59
2021/08/14 08:42:06;;;;;;;5.82;3.90;;;25.50;59.60;;;;;;5047736;28;20029;-59
2021/08/14 08:44:32;;;;;;;4.75;3.83;;;25.40;59.50;;;;;;5053687;28;20040;-59
2021/08/14 08:46:59;;;;;;;4.03;3.45;;;25.40;59.50;;;;;;5038640;28;20029;-59
2021/08/14 08:49:26;;;;;;;5.68;4.35;;;25.40;59.80;;;;;;5034002;28;20022;-59
2021/08/14 08:51:54;;;;;;;6.10;4.20;;;25.40;60.00;;;;;;5034106;28;20021;-59
2021/08/14 08:54:20;;;;;;;5.45;4.00;;;25.30;60.00;;;;;;5033698;28;20021;-59
2021/08/14 08:56:46;;;;;;;5.95;4.13;;;25.30;60.00;;;;;;5033921;28;20049;-59
2021/08/14 08:59:12;;;;;;;6.45;4.25;;;25.30;60.00;;;;;;5033817;28;20022;-59
2021/08/14 09:01:39;;;;;;;5.80;4.05;;;25.30;59.70;;;;;;5033304;28;20028;-59
2021/08/14 09:04:25;;;;;;;5.20;3.60;;;25.20;59.60;;;;;;5033811;28;20469;-58
2021/08/14 09:06:51;;;;;;;4.82;3.88;;;25.30;59.60;;;;;;5037822;28;20021;-59
2021/08/14 09:09:23;;;;;;;4.72;3.63;;;25.20;59.30;;;;;;5053577;28;20021;-59
2021/08/14 09:11:55;;;;;;;3.97;3.55;;;25.20;59.30;;;;;;5052529;28;20020;-59
2021/08/14 09:14:21;;;;;;;3.80;3.15;;;25.20;59.30;;;;;;5053656;28;20025;-59
2021/08/14 09:17:04;;;;;;;5.28;3.65;;;25.20;59.00;;;;;;5053059;28;20033;-59
2021/08/14 09:19:29;;;;;;;4.30;3.40;;;25.20;58.90;;;;;;5038337;28;20048;-59
2021/08/14 09:21:55;;;;;;;4.28;3.42;;;25.20;58.90;;;;;;5033458;28;20418;-59
2021/08/14 09:24:32;;;;;;;3.92;3.53;;;25.20;58.60;;;;;;5033299;28;20075;-59
2021/08/14 09:27:00;;;;;;;4.57;3.40;;;25.20;58.50;;;;;;5033505;28;20029;-59
2021/08/14 09:29:35;;;;;;;4.70;3.60;;;25.20;58.20;;;;;;5015654;28;20032;-59
2021/08/14 09:32:02;;;;;;;6.75;4.07;;;25.20;58.30;;;;;;5033169;28;20433;-59
2021/08/14 09:34:28;;;;;;;4.63;3.70;;;25.20;58.00;;;;;;5033355;28;20025;-59
2021/08/14 09:37:02;;;;;;;5.63;4.03;;;25.20;58.00;;;;;;5032706;28;20488;-59
2021/08/14 09:39:31;;;;;;;7.90;4.72;;;25.20;57.70;;;;;;5033480;28;20029;-59
2021/08/14 09:42:02;;;;;;;6.85;4.15;;;25.20;57.70;;;;;;5047742;28;20385;-59
2021/08/14 09:44:28;;;;;;;4.57;3.80;;;25.20;57.50;;;;;;5048655;28;20052;-59
2021/08/14 09:46:54;;;;;;;5.70;4.35;;;25.20;57.30;;;;;;5013113;28;20060;-59
2021/08/14 09:49:19;;;;;;;5.13;4.20;;;25.20;57.30;;;;;;5013555;28;20148;-59
2021/08/14 09:51:45;;;;;;;5.28;3.78;;;25.20;56.90;;;;;;5013190;28;20022;-59
2021/08/14 09:54:11;;;;;;;5.22;4.07;;;25.20;56.80;;;;;;5012985;28;20056;-59
2021/08/14 09:56:37;;;;;;;6.93;3.80;;;25.20;56.70;;;;;;5013063;28;20022;-59
2021/08/14 09:59:05;;;;;;;4.70;3.55;;;25.20;56.80;;;;;;5012973;28;20034;-59
2021/08/14 10:01:32;;;;;;;3.55;2.97;;;25.20;56.70;;;;;;5013123;28;20076;-58
2021/08/14 10:03:59;;;;;;;4.72;3.50;;;25.20;56.50;;;;;;5013306;28;20041;-59
2021/08/14 10:06:25;;;;;;;6.35;3.47;;;25.20;56.40;;;;;;5013587;28;20044;-59
2021/08/14 10:08:51;;;;;;;4.18;3.63;;;25.20;56.50;;;;;;5052532;28;20058;-59
2021/08/14 10:11:18;;;;;;;3.42;3.13;;;25.20;56.40;;;;;;5051747;28;20017;-59
2021/08/14 10:13:47;;;;;;;3.63;3.17;;;25.20;56.50;;;;;;5050516;28;20036;-59
2021/08/14 10:16:14;;;;;;;6.13;4.10;;;25.20;56.40;;;;;;5032882;28;20079;-59
2021/08/14 10:18:41;;;;;;;3.72;3.33;;;25.20;56.40;;;;;;5032879;28;20029;-59
2021/08/14 10:21:08;;;;;;;5.75;4.10;;;25.30;56.40;;;;;;5032524;28;20028;-59
2021/08/14 10:23:34;;;;;;;6.28;3.40;;;25.30;56.50;;;;;;5032675;28;20053;-59
2021/08/14 10:26:07;;;;;;;3.92;3.50;;;25.30;56.30;;;;;;5032427;28;20115;-59
2021/08/14 10:28:45;;;;;;;5.57;3.35;;;25.30;55.90;;;;;;5032768;28;20419;-59
2021/08/14 10:31:29;;;;;;;4.03;3.10;;;25.30;56.00;;;;;;5031923;28;20049;-59
2021/08/14 10:34:19;;;;;;;4.50;3.17;;;25.30;55.70;;;;;;5032235;28;20025;-59
2021/08/14 10:36:49;;;;;;;6.30;3.72;;;25.30;55.80;;;;;;5009579;28;20121;-59
2021/08/14 10:39:33;;;;;;;4.63;3.40;;;25.30;55.90;;;;;;5012724;28;20433;-59
2021/08/14 10:42:01;;;;;;;4.03;3.22;;;25.30;56.00;;;;;;5047243;28;20025;-59
2021/08/14 10:44:46;;;;;;;3.92;3.53;;;25.30;55.90;;;;;;5052196;28;20017;-59
2021/08/14 10:47:31;;;;;;;5.50;3.58;;;25.30;55.80;;;;;;5052258;28;20029;-58
2021/08/14 10:49:58;;;;;;;3.50;3.05;;;25.30;55.60;;;;;;5041947;28;20480;-59
2021/08/14 10:52:34;;;;;;;3.95;3.33;;;25.30;55.60;;;;;;5032147;28;20056;-59
2021/08/14 10:55:13;;;;;;;4.47;3.75;;;25.30;55.50;;;;;;5035724;28;20049;-59
2021/08/14 10:57:41;;;;;;;4.05;3.35;;;25.30;55.50;;;;;;5036124;28;20485;-59
2021/08/14 11:00:15;;;;;;;4.80;3.50;;;25.30;55.60;;;;;;5036359;28;20060;-59
2021/08/14 11:02:56;;;;;;;5.30;3.25;;;25.40;55.70;;;;;;5035855;28;20051;-59
2021/08/14 11:05:26;;;;;;;5.35;3.30;;;25.40;55.80;;;;;;5036609;28;20112;-58
2021/08/14 11:07:52;;;;;;;4.45;3.42;;;25.40;55.50;;;;;;5048886;28;20029;-59
2021/08/14 11:10:38;;;;;;;4.05;3.15;;;25.40;55.20;;;;;;5034265;28;20052;-59
2021/08/14 11:13:29;;;;;;;4.70;3.10;;;25.40;55.00;;;;;;5039410;28;20548;-59
2021/08/14 11:15:55;;;;;;;5.13;3.28;;;25.50;55.10;;;;;;5046651;28;20022;-59
2021/08/14 11:18:54;;;;;;;4.80;3.55;;;25.40;54.60;;;;;;5036069;28;20114;-59
2021/08/14 11:21:39;;;;;;;3.83;3.13;;;25.50;54.50;;;;;;5035877;28;20037;-59
2021/08/14 11:24:05;;;;;;;3.60;2.78;;;25.50;54.30;;;;;;5036115;28;20036;-59
2021/08/14 11:26:35;;;;;;;4.70;3.47;;;25.50;54.80;;;;;;5043991;28;20025;-58
2021/08/14 11:29:02;;;;;;;3.92;3.08;;;25.60;53.80;;;;;;5047683;28;20021;-58
2021/08/14 11:31:28;;;;;;;3.70;3.03;;;25.60;54.00;;;;;;5045901;28;20041;-59
2021/08/14 11:34:10;;;;;;;4.97;3.60;;;25.60;53.90;;;;;;5040538;28;20076;-59
2021/08/14 11:36:36;;;;;;;5.57;3.88;;;25.60;54.00;;;;;;5042879;28;20408;-59
2021/08/14 11:39:02;;;;;;;4.07;3.35;;;25.60;54.00;;;;;;5036198;28;20044;-59
2021/08/14 11:41:28;;;;;;;4.78;3.40;;;25.60;54.20;;;;;;5038710;28;20065;-59
2021/08/14 11:44:03;;;;;;;6.03;3.90;;;25.60;53.80;;;;;;5035707;28;20060;-59
2021/08/14 11:46:29;;;;;;;4.50;3.67;;;25.60;53.60;;;;;;5035570;28;20033;-59
2021/08/14 11:49:00;;;;;;;4.63;3.30;;;25.60;53.50;;;;;;5040153;28;20025;-59
2021/08/14 11:51:27;;;;;;;4.47;3.42;;;25.60;53.40;;;;;;5048860;28;20028;-59
2021/08/14 11:54:27;;;;;;;5.35;3.33;;;25.60;53.20;;;;;;5043043;28;20071;-59
2021/08/14 11:56:53;;;;;;;3.97;3.38;;;25.60;53.20;;;;;;5008679;28;20041;-59
2021/08/14 11:59:31;;;;;;;4.72;3.55;;;25.60;53.20;;;;;;5029914;28;20037;-60
2021/08/14 12:01:56;;;;;;;3.90;2.95;;;25.60;53.00;;;;;;5017672;28;20049;-59
2021/08/14 12:04:22;;;;;;;4.47;3.20;;;25.60;52.80;;;;;;5034916;28;20519;-59
2021/08/14 12:06:58;;;;;;;4.38;3.30;;;25.60;53.00;;;;;;5030849;28;20422;-59
2021/08/14 12:09:24;;;;;;;5.65;3.60;;;25.70;52.90;;;;;;5055281;28;20124;-59
2021/08/14 12:11:54;;;;;;;5.40;3.50;;;25.70;52.90;;;;;;5054326;28;20347;-59
2021/08/14 12:14:25;;;;;;;4.37;3.50;;;25.70;52.50;;;;;;5055082;28;20047;-59
2021/08/14 12:17:00;;;;;;;;;;;25.70;52.40;;;;;;5055679;28;20055;-59
2021/08/14 12:19:27;;;;;;;4.25;2.78;;;25.70;52.60;;;;;;5038200;28;19919;-59
2021/08/14 12:22:29;;;;;;;5.78;2.95;;;25.70;52.70;;;;;;5034856;28;20033;-59
2021/08/14 12:24:56;;;;;;;4.22;2.92;;;25.80;52.80;;;;;;5013247;28;20041;-59
2021/08/14 12:27:32;;;;;;;4.30;3.17;;;25.80;52.60;;;;;;5034361;28;20461;-59
2021/08/14 12:30:20;;;;;;;5.10;3.20;;;25.80;52.50;;;;;;5034823;28;20496;-59
2021/08/14 12:32:46;;;;;;;5.15;3.15;;;25.80;52.40;;;;;;5035421;28;20049;-59
2021/08/14 12:35:23;;;;;;;4.97;3.58;;;25.80;52.50;;;;;;5038846;28;20028;-59
2021/08/14 12:37:52;;;;;;;4.97;3.35;;;25.80;52.40;;;;;;5054552;28;20424;-59
2021/08/14 12:40:23;;;;;;;3.95;2.97;;;25.90;52.20;;;;;;5054397;28;20064;-59
2021/08/14 12:42:49;;;;;;;4.55;3.13;;;25.90;52.20;;;;;;5034835;28;20068;-59
2021/08/14 12:45:21;;;;;;;4.88;3.83;;;25.90;51.90;;;;;;5016287;28;20121;-59
2021/08/14 12:47:49;;;;;;;5.50;3.40;;;25.90;51.90;;;;;;5014746;28;20034;-59